createdAt,value
2023-05-08T00:00:38.734Z,100741.78
2023-05-08T00:03:05.540Z,100739.31
2023-05-08T00:05:32.305Z,100748.31
2023-05-08T00:08:01.541Z,100727.31
2023-05-08T00:10:29.059Z,100729.56
2023-05-08T00:12:56.135Z,100730.06
2023-05-08T00:15:22.977Z,100752.56
2023-05-08T00:17:49.753Z,100749.91
2023-05-08T00:20:16.690Z,100743.31
2023-05-08T00:22:43.500Z,100747.69
2023-05-08T00:25:11.259Z,100751.88
2023-05-08T00:27:38.041Z,100745.88
2023-05-08T00:30:06.964Z,100770.25
2023-05-08T00:32:33.829Z,100762.13
2023-05-08T00:35:00.621Z,100741.06
2023-05-08T00:37:27.339Z,100749.22
2023-05-08T00:39:55.094Z,100776.38
2023-05-08T00:42:22.268Z,100766.00
2023-05-08T00:44:48.970Z,100735.06
2023-05-08T00:47:15.723Z,100754.00
2023-05-08T00:49:42.579Z,100709.25
2023-05-08T00:52:09.307Z,100737.69
2023-05-08T00:54:36.862Z,100703.84
2023-05-08T00:57:06.837Z,100727.75
2023-05-08T00:59:34.089Z,100754.13
2023-05-08T01:02:00.998Z,100738.75
2023-05-08T01:04:27.816Z,100737.81
2023-05-08T01:06:54.558Z,100748.72
2023-05-08T01:09:21.269Z,100760.13
2023-05-08T01:11:52.539Z,100775.41
2023-05-08T01:14:28.989Z,100772.50
2023-05-08T01:17:02.324Z,100747.09
2023-05-08T01:20:03.575Z,100789.22
2023-05-08T01:22:44.435Z,100747.19
2023-05-08T01:25:40.606Z,100775.25
2023-05-08T01:28:13.937Z,100771.75
2023-05-08T01:31:00.407Z,100792.47
2023-05-08T01:33:28.321Z,100787.03
2023-05-08T01:35:59.034Z,100741.06
2023-05-08T01:38:47.458Z,100791.72
2023-05-08T01:41:17.706Z,100788.16
2023-05-08T01:44:05.514Z,100783.34
2023-05-08T01:46:32.949Z,100784.50
2023-05-08T01:49:26.673Z,100789.41
2023-05-08T01:52:19.796Z,100788.84
2023-05-08T01:54:54.077Z,100789.66
2023-05-08T01:57:20.832Z,100739.34
2023-05-08T01:59:47.556Z,100795.81
2023-05-08T02:02:14.379Z,100736.41
2023-05-08T02:04:41.474Z,100764.03
2023-05-08T02:07:08.331Z,100748.81
2023-05-08T02:09:35.008Z,100793.66
2023-05-08T02:12:03.193Z,100786.03
2023-05-08T02:14:29.978Z,100743.31
2023-05-08T02:16:56.726Z,100785.41
2023-05-08T02:19:23.692Z,100795.47
2023-05-08T02:21:50.448Z,100707.72
2023-05-08T02:24:17.796Z,100789.28
2023-05-08T02:26:45.104Z,100765.03
2023-05-08T02:29:12.124Z,100774.63
2023-05-08T02:31:40.043Z,100779.09
2023-05-08T02:34:07.549Z,100740.25
2023-05-08T02:36:35.049Z,100764.34
2023-05-08T02:39:02.253Z,100786.94
2023-05-08T02:41:30.742Z,100762.63
2023-05-08T02:43:57.641Z,100747.41
2023-05-08T02:46:44.254Z,100779.94
2023-05-08T02:49:31.481Z,100804.34
2023-05-08T02:52:08.992Z,100775.34
2023-05-08T02:54:38.364Z,100810.19
2023-05-08T02:57:18.982Z,100795.50
2023-05-08T03:00:08.059Z,100797.44
2023-05-08T03:02:47.805Z,100783.59
2023-05-08T03:05:18.596Z,100793.56
2023-05-08T03:07:45.879Z,100804.97
2023-05-08T03:10:16.092Z,100759.31
2023-05-08T03:12:47.709Z,100769.97
2023-05-08T03:15:37.715Z,100794.78
2023-05-08T03:18:10.532Z,100777.47
2023-05-08T03:20:43.590Z,100767.34
2023-05-08T03:23:11.336Z,100765.59
2023-05-08T03:25:38.751Z,100781.38
2023-05-08T03:28:06.042Z,100768.75
2023-05-08T03:30:36.124Z,100744.47
2023-05-08T03:33:08.660Z,100788.88
2023-05-08T03:35:37.184Z,100791.13
2023-05-08T03:38:04.909Z,100803.97
2023-05-08T03:40:32.037Z,100768.34
2023-05-08T03:42:58.786Z,100776.47
2023-05-08T03:45:25.618Z,100786.25
2023-05-08T03:47:53.933Z,100729.91
2023-05-08T03:50:21.708Z,100770.41
2023-05-08T03:52:48.679Z,100803.19
2023-05-08T03:55:15.888Z,100786.25
2023-05-08T03:58:07.226Z,100805.78
2023-05-08T04:00:42.428Z,100802.16
2023-05-08T04:03:17.997Z,100787.50
2023-05-08T04:05:51.865Z,100781.59
2023-05-08T04:08:30.174Z,100795.63
2023-05-08T04:11:06.727Z,100809.78
2023-05-08T04:13:39.287Z,100810.31
2023-05-08T04:16:25.022Z,100807.03
2023-05-08T04:18:54.992Z,100820.06
2023-05-08T04:21:23.681Z,100790.34
2023-05-08T04:23:52.080Z,100751.13
2023-05-08T04:26:19.069Z,100809.78
2023-05-08T04:28:47.814Z,100800.44
2023-05-08T04:31:15.934Z,100826.00
2023-05-08T04:33:46.587Z,100821.91
2023-05-08T04:36:13.830Z,100799.25
2023-05-08T04:38:42.459Z,100791.81
2023-05-08T04:41:10.461Z,100793.63
2023-05-08T04:43:37.574Z,100820.88
2023-05-08T04:46:06.266Z,100820.69
2023-05-08T04:48:34.288Z,100794.63
2023-05-08T04:51:01.558Z,100797.38
2023-05-08T04:53:28.809Z,100828.47
2023-05-08T04:55:56.031Z,100808.50
2023-05-08T04:58:22.872Z,100832.06
2023-05-08T05:00:49.821Z,100823.38
2023-05-08T05:03:16.968Z,100824.31
2023-05-08T05:05:43.843Z,100823.50
2023-05-08T05:08:11.288Z,100826.25
2023-05-08T05:10:41.081Z,100850.47
2023-05-08T05:13:08.222Z,100814.06
2023-05-08T05:15:35.526Z,100795.94
2023-05-08T05:18:02.446Z,100859.88
2023-05-08T05:20:30.495Z,100846.03
2023-05-08T05:22:57.855Z,100866.69
2023-05-08T05:25:25.393Z,100860.69
2023-05-08T05:27:52.792Z,100826.50
2023-05-08T05:30:22.314Z,100823.41
2023-05-08T05:32:51.002Z,100859.06
2023-05-08T05:35:18.472Z,100867.00
2023-05-08T05:37:45.440Z,100858.31
2023-05-08T05:40:13.596Z,100855.56
2023-05-08T05:42:41.569Z,100863.75
2023-05-08T05:45:11.163Z,100867.00
2023-05-08T05:47:39.477Z,100853.94
2023-05-08T05:50:08.678Z,100874.13
2023-05-08T05:52:35.857Z,100879.03
2023-05-08T05:55:03.491Z,100875.94
2023-05-08T05:57:30.302Z,100875.94
2023-05-08T05:59:57.492Z,100873.09
2023-05-08T06:02:24.385Z,100889.41
2023-05-08T06:04:52.498Z,100869.44
2023-05-08T06:07:21.118Z,100884.53
2023-05-08T06:09:50.378Z,100888.91
2023-05-08T06:12:18.508Z,100885.03
2023-05-08T06:14:45.741Z,100882.41
2023-05-08T06:17:12.964Z,100872.06
2023-05-08T06:19:39.799Z,100874.13
2023-05-08T06:22:07.001Z,100828.81
2023-05-08T06:24:35.590Z,100865.94
2023-05-08T06:27:02.654Z,100892.19
2023-05-08T06:29:29.531Z,100900.31
2023-05-08T06:31:57.163Z,100885.53
2023-05-08T06:34:23.842Z,100893.66
2023-05-08T06:36:50.795Z,100893.88
2023-05-08T06:39:17.697Z,100876.75
2023-05-08T06:41:47.914Z,100873.91
2023-05-08T06:44:23.879Z,100882.34
2023-05-08T06:46:51.257Z,100878.28
2023-05-08T06:49:19.300Z,100873.53
2023-05-08T06:51:46.346Z,100878.78
2023-05-08T06:54:13.412Z,100874.34
2023-05-08T06:56:40.860Z,100883.41
2023-05-08T06:59:09.093Z,100900.81
2023-05-08T07:01:37.482Z,100896.41
2023-05-08T07:04:04.821Z,100877.09
2023-05-08T07:06:32.002Z,100906.31
2023-05-08T07:09:00.685Z,100869.78
2023-05-08T07:11:28.412Z,100874.63
2023-05-08T07:13:55.686Z,100901.50
2023-05-08T07:16:22.748Z,100892.66
2023-05-08T07:18:49.824Z,100900.00
2023-05-08T07:21:18.192Z,100890.41
2023-05-08T07:23:45.722Z,100895.31
2023-05-08T07:26:13.091Z,100901.44
2023-05-08T07:28:40.149Z,100906.75
2023-05-08T07:31:10.109Z,100874.25
2023-05-08T07:33:37.726Z,100896.22
2023-05-08T07:36:07.041Z,100904.91
2023-05-08T07:38:34.222Z,100874.38
2023-05-08T07:41:02.395Z,100881.28
2023-05-08T07:43:29.488Z,100886.78
2023-05-08T07:45:57.153Z,100909.19
2023-05-08T07:48:24.117Z,100883.31
2023-05-08T07:50:51.242Z,100918.56
2023-05-08T07:53:19.370Z,100914.69
2023-05-08T07:55:46.754Z,100914.06
2023-05-08T07:58:13.845Z,100884.75
2023-05-08T08:00:41.391Z,100914.59
2023-05-08T08:03:08.857Z,100916.72
2023-05-08T08:05:35.626Z,100898.59
2023-05-08T08:08:02.418Z,100916.34
2023-05-08T08:10:29.760Z,100924.66
2023-05-08T08:12:56.592Z,100928.56
2023-05-08T08:15:23.288Z,100919.97
2023-05-08T08:17:50.394Z,100935.56
2023-05-08T08:20:17.310Z,100912.66
2023-05-08T08:22:45.222Z,100912.94
2023-05-08T08:25:13.302Z,100918.34
2023-05-08T08:27:40.474Z,100892.91
2023-05-08T08:30:17.756Z,100912.25
2023-05-08T08:32:46.431Z,100893.09
2023-05-08T08:35:14.222Z,100909.59
2023-05-08T08:37:42.002Z,100904.09
2023-05-08T08:40:09.629Z,100899.31
2023-05-08T08:42:37.150Z,100909.19
2023-05-08T08:45:05.371Z,100920.81
2023-05-08T08:47:37.901Z,100928.97
2023-05-08T08:50:26.069Z,100910.41
2023-05-08T08:53:17.480Z,100934.25
2023-05-08T08:55:52.229Z,100887.19
2023-05-08T08:58:44.163Z,100924.59
2023-05-08T09:01:12.377Z,100896.38
2023-05-08T09:03:39.578Z,100881.69
2023-05-08T09:06:08.021Z,100907.78
2023-05-08T09:08:40.583Z,100936.09
2023-05-08T09:11:09.129Z,100921.84
2023-05-08T09:13:37.149Z,100936.91
2023-05-08T09:16:04.245Z,100929.97
2023-05-08T09:18:32.181Z,100934.88
2023-05-08T09:21:01.452Z,100892.41
2023-05-08T09:23:28.641Z,100928.56
2023-05-08T09:25:55.409Z,100918.38
2023-05-08T09:28:24.154Z,100908.91
2023-05-08T09:30:56.187Z,100933.88
2023-05-08T09:33:30.754Z,100952.41
2023-05-08T09:35:57.697Z,100941.13
2023-05-08T09:38:34.331Z,100955.16
2023-05-08T09:41:12.051Z,100950.25
2023-05-08T09:43:39.468Z,100953.00
2023-05-08T09:46:27.705Z,100964.59
2023-05-08T09:48:58.729Z,100955.47
2023-05-08T09:51:26.982Z,100954.66
2023-05-08T09:54:00.067Z,100931.34
2023-05-08T09:56:39.747Z,100957.53
2023-05-08T09:59:23.874Z,100951.25
2023-05-08T10:01:51.398Z,100958.53
2023-05-08T10:04:18.579Z,100962.78
2023-05-08T10:06:57.561Z,100963.19
2023-05-08T10:09:24.216Z,100968.19
2023-05-08T10:11:52.838Z,100965.88
2023-05-08T10:14:20.360Z,100945.50
2023-05-08T10:16:52.058Z,100934.09
2023-05-08T10:19:20.091Z,100931.03
2023-05-08T10:21:48.276Z,100935.09
2023-05-08T10:24:22.459Z,100952.41
2023-05-08T10:27:06.490Z,100952.41
2023-05-08T10:29:39.459Z,100953.00
2023-05-08T10:32:06.597Z,100964.41
2023-05-08T10:34:34.149Z,100958.59
2023-05-08T10:37:01.293Z,100944.66
2023-05-08T10:39:28.956Z,100945.13
2023-05-08T10:41:56.021Z,100954.72
2023-05-08T10:44:23.381Z,100950.78
2023-05-08T10:47:17.145Z,100933.34
2023-05-08T10:49:45.350Z,100966.56
2023-05-08T10:52:53.072Z,100951.97
2023-05-08T10:55:30.360Z,100958.00
2023-05-08T10:58:07.387Z,100951.53
2023-05-08T11:00:54.387Z,100935.44
2023-05-08T11:03:31.537Z,100920.38
2023-05-08T11:05:59.994Z,100912.66
2023-05-08T11:08:29.154Z,100926.03
2023-05-08T11:11:02.228Z,100934.91
2023-05-08T11:13:35.533Z,100941.53
2023-05-08T11:16:02.891Z,100916.06
2023-05-08T11:18:41.768Z,100882.25
2023-05-08T11:21:16.101Z,100912.34
2023-05-08T11:23:43.294Z,100914.59
2023-05-08T11:26:13.934Z,100915.28
2023-05-08T11:28:55.618Z,100906.66
2023-05-08T11:31:22.712Z,100915.66
2023-05-08T11:33:49.592Z,100919.22
2023-05-08T11:36:17.798Z,100902.31
2023-05-08T11:38:44.803Z,100912.00
2023-05-08T11:41:25.541Z,100915.41
2023-05-08T11:43:58.609Z,100928.16
2023-05-08T11:46:29.900Z,100900.13
2023-05-08T11:49:02.819Z,100926.09
2023-05-08T11:51:33.219Z,100928.25
2023-05-08T11:54:00.848Z,100910.19
2023-05-08T11:56:27.592Z,100886.94
2023-05-08T11:59:05.663Z,100913.38
2023-05-08T12:01:33.255Z,100909.94
2023-05-08T12:04:10.844Z,100912.72
2023-05-08T12:06:39.814Z,100861.75
2023-05-08T12:09:13.891Z,100890.66
2023-05-08T12:11:45.430Z,100915.06
2023-05-08T12:14:13.620Z,100912.84
2023-05-08T12:16:40.713Z,100913.31
2023-05-08T12:19:13.576Z,100912.31
2023-05-08T12:21:47.660Z,100925.19
2023-05-08T12:24:14.487Z,100897.81
2023-05-08T12:26:41.738Z,100909.56
2023-05-08T12:29:08.743Z,100906.69
2023-05-08T12:31:35.838Z,100864.50
2023-05-08T12:34:05.534Z,100919.69
2023-05-08T12:36:36.345Z,100849.56
2023-05-08T12:39:16.341Z,100900.22
2023-05-08T12:41:49.780Z,100901.22
2023-05-08T12:44:21.057Z,100897.28
2023-05-08T12:46:50.227Z,100890.19
2023-05-08T12:49:31.909Z,100881.88
2023-05-08T12:52:09.268Z,100890.19
2023-05-08T12:54:41.718Z,100904.66
2023-05-08T12:57:12.556Z,100900.09
2023-05-08T12:59:40.330Z,100905.47
2023-05-08T13:02:19.193Z,100878.16
2023-05-08T13:04:46.561Z,100896.09
2023-05-08T13:07:13.880Z,100892.34
2023-05-08T13:09:40.706Z,100880.78
2023-05-08T13:12:08.658Z,100886.28
2023-05-08T13:14:35.514Z,100894.81
2023-05-08T13:17:02.769Z,100886.84
2023-05-08T13:19:29.519Z,100860.34
2023-05-08T13:21:57.175Z,100880.00
2023-05-08T13:24:26.122Z,100873.38
2023-05-08T13:26:53.344Z,100844.53
2023-05-08T13:29:22.224Z,100892.88
2023-05-08T13:31:48.956Z,100865.25
2023-05-08T13:34:15.704Z,100839.81
2023-05-08T13:36:42.414Z,100890.09
2023-05-08T13:39:09.141Z,100862.00
2023-05-08T13:41:37.640Z,100868.97
2023-05-08T13:44:04.734Z,100890.44
2023-05-08T13:46:31.630Z,100822.00
2023-05-08T13:48:58.415Z,100885.09
2023-05-08T13:51:26.782Z,100884.16
2023-05-08T13:53:54.982Z,100884.31
2023-05-08T13:56:22.415Z,100827.25
2023-05-08T13:58:49.237Z,100874.72
2023-05-08T14:01:25.519Z,100852.13
2023-05-08T14:03:53.353Z,100867.72
2023-05-08T14:06:21.376Z,100879.78
2023-05-08T14:08:51.477Z,100860.78
2023-05-08T14:11:19.682Z,100882.19
2023-05-08T14:13:46.882Z,100869.53
2023-05-08T14:16:16.251Z,100838.63
2023-05-08T14:18:43.240Z,100831.50
2023-05-08T14:21:10.470Z,100857.63
2023-05-08T14:23:39.162Z,100862.03
2023-05-08T14:26:06.896Z,100837.50
2023-05-08T14:28:33.807Z,100840.28
2023-05-08T14:31:02.576Z,100840.91
2023-05-08T14:33:29.760Z,100860.56
2023-05-08T14:35:57.090Z,100865.13
2023-05-08T14:38:24.095Z,100836.03
2023-05-08T14:40:51.907Z,100847.56
2023-05-08T14:43:19.052Z,100853.25
2023-05-08T14:45:45.926Z,100840.75
2023-05-08T14:48:13.426Z,100847.91
2023-05-08T14:50:42.524Z,100838.78
2023-05-08T14:53:09.962Z,100825.00
2023-05-08T14:55:37.433Z,100842.06
2023-05-08T14:58:04.640Z,100834.25
2023-05-08T15:00:31.398Z,100834.75
2023-05-08T15:02:58.623Z,100818.47
2023-05-08T15:05:26.374Z,100832.47
2023-05-08T15:07:54.163Z,100835.72
2023-05-08T15:10:20.914Z,100773.28
2023-05-08T15:12:47.620Z,100829.88
2023-05-08T15:15:15.694Z,100822.72
2023-05-08T15:17:43.417Z,100842.41
2023-05-08T15:20:10.285Z,100803.19
2023-05-08T15:22:37.280Z,100835.06
2023-05-08T15:25:06.181Z,100814.91
2023-05-08T15:27:33.112Z,100809.03
2023-05-08T15:30:02.221Z,100828.44
2023-05-08T15:32:29.905Z,100816.03
2023-05-08T15:34:56.664Z,100828.56
2023-05-08T15:37:23.750Z,100818.47
2023-05-08T15:39:51.172Z,100836.03
2023-05-08T15:42:18.531Z,100808.22
2023-05-08T15:47:16.295Z,100830.72
2023-05-08T15:49:44.440Z,100852.75
2023-05-08T15:52:11.417Z,100822.13
2023-05-08T15:54:38.153Z,100851.63
2023-05-08T15:57:04.833Z,100853.44
2023-05-08T15:59:31.586Z,100855.41
2023-05-08T16:01:58.804Z,100828.56
2023-05-08T16:04:26.028Z,100856.59
2023-05-08T16:06:53.317Z,100851.06
2023-05-08T16:09:20.879Z,100848.81
2023-05-08T16:11:48.332Z,100843.75
2023-05-08T16:14:17.369Z,100869.91
2023-05-08T16:16:44.437Z,100852.72
2023-05-08T16:19:11.255Z,100803.22
2023-05-08T16:21:38.065Z,100871.91
2023-05-08T16:24:06.315Z,100870.22
2023-05-08T16:26:34.009Z,100866.78
2023-05-08T16:29:00.866Z,100845.75
2023-05-08T16:31:27.730Z,100859.94
2023-05-08T16:33:54.990Z,100848.47
2023-05-08T16:36:22.408Z,100840.72
2023-05-08T16:38:50.054Z,100835.28
2023-05-08T16:41:18.215Z,100826.84
2023-05-08T16:43:44.928Z,100821.94
2023-05-08T16:46:12.660Z,100840.38
2023-05-08T16:48:40.407Z,100819.84
2023-05-08T16:51:08.035Z,100831.44
2023-05-08T16:53:35.035Z,100838.97
2023-05-08T16:56:02.602Z,100822.84
2023-05-08T16:58:31.418Z,100801.53
2023-05-08T17:00:58.704Z,100836.91
2023-05-08T17:03:28.129Z,100833.00
2023-05-08T17:05:54.917Z,100817.53
2023-05-08T17:08:22.357Z,100823.44
2023-05-08T17:10:50.532Z,100782.53
2023-05-08T17:13:17.936Z,100841.31
2023-05-08T17:15:45.571Z,100847.31
2023-05-08T17:18:12.414Z,100831.69
2023-05-08T17:20:42.714Z,100838.88
2023-05-08T17:23:10.571Z,100791.19
2023-05-08T17:25:37.321Z,100842.81
2023-05-08T17:28:05.469Z,100817.91
2023-05-08T17:30:34.023Z,100822.53
2023-05-08T17:33:01.349Z,100835.34
2023-05-08T17:35:28.151Z,100814.03
2023-05-08T17:37:55.871Z,100803.88
2023-05-08T17:40:24.051Z,100830.94
2023-05-08T17:42:51.374Z,100862.44
2023-05-08T17:45:18.651Z,100831.59
2023-05-08T17:47:47.153Z,100819.22
2023-05-08T17:50:15.084Z,100825.91
2023-05-08T17:52:42.866Z,100850.44
2023-05-08T17:55:11.645Z,100859.84
2023-05-08T17:57:40.024Z,100846.69
2023-05-08T18:00:07.882Z,100849.31
2023-05-08T18:02:35.799Z,100802.25
2023-05-08T18:05:03.362Z,100850.44
2023-05-08T18:07:31.206Z,100842.00
2023-05-08T18:09:58.255Z,100859.22
2023-05-08T18:12:25.873Z,100865.72
2023-05-08T18:14:57.430Z,100839.00
2023-05-08T18:17:34.967Z,100867.78
2023-05-08T18:20:08.086Z,100866.00
2023-05-08T18:22:35.316Z,100842.41
2023-05-08T18:25:02.317Z,100826.81
2023-05-08T18:27:30.370Z,100831.31
2023-05-08T18:29:57.138Z,100843.22
2023-05-08T18:32:24.150Z,100815.91
2023-05-08T18:34:50.958Z,100859.50
2023-05-08T18:37:19.135Z,100864.38
2023-05-08T18:39:46.172Z,100863.25
2023-05-08T18:42:13.462Z,100852.34
2023-05-08T18:44:40.305Z,100852.50
2023-05-08T18:47:07.440Z,100855.59
2023-05-08T18:49:34.758Z,100864.38
2023-05-08T18:52:02.259Z,100829.69
2023-05-08T18:54:29.607Z,100854.72
2023-05-08T18:56:56.466Z,100833.81
2023-05-08T18:59:24.635Z,100860.31
2023-05-08T19:01:52.141Z,100855.75
2023-05-08T19:04:19.294Z,100851.16
2023-05-08T19:06:47.188Z,100863.38
2023-05-08T19:09:29.851Z,100874.56
2023-05-08T19:12:02.987Z,100842.72
2023-05-08T19:14:43.139Z,100842.09
2023-05-08T19:17:29.661Z,100862.88
2023-05-08T19:19:57.679Z,100828.19
2023-05-08T19:22:25.074Z,100870.16
2023-05-08T19:24:51.792Z,100864.19
2023-05-08T19:27:18.563Z,100864.50
2023-05-08T19:29:52.366Z,100878.00
2023-05-08T19:32:20.747Z,100868.69
2023-05-08T19:34:47.569Z,100845.19
2023-05-08T19:37:14.495Z,100869.91
2023-05-08T19:39:41.954Z,100864.69
2023-05-08T19:42:35.776Z,100871.69
2023-05-08T19:45:17.035Z,100844.56
2023-05-08T19:47:52.568Z,100863.75
2023-05-08T19:50:20.863Z,100864.72
2023-05-08T19:52:49.323Z,100829.13
2023-05-08T19:55:25.688Z,100843.72
2023-05-08T19:57:58.440Z,100809.66
2023-05-08T20:00:42.840Z,100855.97
2023-05-08T20:03:29.810Z,100861.47
2023-05-08T20:06:21.915Z,100862.09
2023-05-08T20:08:54.153Z,100864.22
2023-05-08T20:11:32.983Z,100872.19
2023-05-08T20:14:13.142Z,100864.69
2023-05-08T20:16:53.675Z,100847.41
2023-05-08T20:19:27.428Z,100847.84
2023-05-08T20:22:01.628Z,100834.16
2023-05-08T20:24:43.018Z,100873.66
2023-05-08T20:27:11.095Z,100854.75
2023-05-08T20:29:37.857Z,100880.03
2023-05-08T20:32:04.822Z,100860.53
2023-05-08T20:34:31.934Z,100840.34
2023-05-08T20:37:01.094Z,100839.53
2023-05-08T20:39:31.420Z,100848.81
2023-05-08T20:41:58.411Z,100849.81
2023-05-08T20:44:25.485Z,100846.22
2023-05-08T20:46:52.659Z,100862.50
2023-05-08T20:49:19.458Z,100871.75
2023-05-08T20:51:46.534Z,100834.84
2023-05-08T20:54:13.679Z,100863.38
2023-05-08T20:56:42.810Z,100829.19
2023-05-08T20:59:10.123Z,100855.38
2023-05-08T21:01:37.006Z,100849.25
2023-05-08T21:04:04.382Z,100845.97
2023-05-08T21:06:32.905Z,100826.63
2023-05-08T21:09:00.594Z,100822.44
2023-05-08T21:11:30.289Z,100849.59
2023-05-08T21:13:58.907Z,100840.81
2023-05-08T21:16:27.339Z,100802.34
2023-05-08T21:18:58.037Z,100841.81
2023-05-08T21:21:25.729Z,100809.47
2023-05-08T21:23:52.631Z,100813.53
2023-05-08T21:26:22.032Z,100799.03
2023-05-08T21:28:49.682Z,100830.88
2023-05-08T21:31:18.122Z,100838.88
2023-05-08T21:33:45.433Z,100809.09
2023-05-08T21:36:12.190Z,100821.00
2023-05-08T21:38:39.786Z,100831.25
2023-05-08T21:41:09.943Z,100819.69
2023-05-08T21:43:37.008Z,100804.22
2023-05-08T21:46:05.385Z,100807.47
2023-05-08T21:48:32.305Z,100839.84
2023-05-08T21:51:01.624Z,100829.63
2023-05-08T21:53:28.704Z,100824.75
2023-05-08T21:55:56.152Z,100831.06
2023-05-08T21:58:23.143Z,100838.22
2023-05-08T22:00:50.286Z,100795.16
2023-05-08T22:03:17.946Z,100806.06
2023-05-08T22:05:45.146Z,100823.75
2023-05-08T22:08:11.864Z,100803.78
2023-05-08T22:10:39.125Z,100789.78
2023-05-08T22:13:07.735Z,100799.72
2023-05-08T22:15:34.729Z,100786.25
2023-05-08T22:18:04.918Z,100793.13
2023-05-08T22:20:32.325Z,100810.50
2023-05-08T22:22:59.501Z,100788.53
2023-05-08T22:25:27.122Z,100795.25
2023-05-08T22:27:53.947Z,100805.28
2023-05-08T22:30:21.986Z,100801.09
2023-05-08T22:32:59.513Z,100792.13
2023-05-08T22:35:27.696Z,100783.56
2023-05-08T22:37:54.639Z,100723.38
2023-05-08T22:40:22.445Z,100756.09
2023-05-08T22:42:51.291Z,100754.47
2023-05-08T22:45:18.363Z,100752.22
2023-05-08T22:47:45.586Z,100754.19
2023-05-08T22:50:12.381Z,100762.97
2023-05-08T22:52:39.504Z,100764.72
2023-05-08T22:55:07.179Z,100743.44
2023-05-08T22:57:34.089Z,100743.94
2023-05-08T23:00:01.539Z,100753.56
2023-05-08T23:02:33.002Z,100759.56
2023-05-08T23:05:00.432Z,100737.94
2023-05-08T23:07:27.205Z,100754.38
2023-05-08T23:09:54.142Z,100729.19
2023-05-08T23:12:21.220Z,100730.63
2023-05-08T23:14:48.216Z,100736.03
2023-05-08T23:17:15.576Z,100734.25
2023-05-08T23:19:42.656Z,100731.50
2023-05-08T23:22:10.254Z,100714.28
2023-05-08T23:24:36.897Z,100720.41
2023-05-08T23:27:03.898Z,100738.28
2023-05-08T23:29:30.901Z,100747.56
2023-05-08T23:31:57.959Z,100741.56
2023-05-08T23:34:25.274Z,100740.91
2023-05-08T23:36:52.818Z,100728.41
2023-05-08T23:39:19.573Z,100737.53
2023-05-08T23:41:46.608Z,100736.50
2023-05-08T23:44:13.330Z,100728.91
2023-05-08T23:46:39.942Z,100704.03
2023-05-08T23:49:08.147Z,100698.38
2023-05-08T23:51:35.009Z,100716.25
2023-05-08T23:54:02.087Z,100720.16
2023-05-08T23:56:29.954Z,100712.22
2023-05-08T23:58:58.891Z,100677.41
